sensor_id;sensor_type;location;lat;lon;timestamp;P1;durP1;ratioP1;P2;durP2;ratioP2
5553;SDS011;2800;49.528;8.666;2022-08-14T00:00:15;8.20;;;5.30;;
5553;SDS011;2800;49.528;8.666;2022-08-14T00:02:42;10.13;;;5.40;;
5553;SDS011;2800;49.528;8.666;2022-08-14T00:05:10;9.10;;;4.87;;
5553;SDS011;2800;49.528;8.666;2022-08-14T00:07:38;8.13;;;5.70;;
5553;SDS011;2800;49.528;8.666;2022-08-14T00:10:05;7.83;;;4.97;;
5553;SDS011;2800;49.528;8.666;2022-08-14T00:12:34;7.50;;;5.00;;
5553;SDS011;2800;49.528;8.666;2022-08-14T00:15:03;7.60;;;5.10;;
5553;SDS011;2800;49.528;8.666;2022-08-14T00:17:31;8.73;;;5.20;;
5553;SDS011;2800;49.528;8.666;2022-08-14T00:19:57;8.50;;;4.63;;
5553;SDS011;2800;49.528;8.666;2022-08-14T00:22:22;7.17;;;4.80;;
5553;SDS011;2800;49.528;8.666;2022-08-14T00:24:48;8.80;;;5.30;;
5553;SDS011;2800;49.528;8.666;2022-08-14T00:27:14;8.70;;;5.10;;
5553;SDS011;2800;49.528;8.666;2022-08-14T00:29:39;8.57;;;5.50;;
5553;SDS011;2800;49.528;8.666;2022-08-14T00:32:05;7.10;;;5.30;;
5553;SDS011;2800;49.528;8.666;2022-08-14T00:34:30;8.13;;;5.10;;
5553;SDS011;2800;49.528;8.666;2022-08-14T00:36:56;8.97;;;4.90;;
5553;SDS011;2800;49.528;8.666;2022-08-14T00:39:21;11.93;;;5.50;;
5553;SDS011;2800;49.528;8.666;2022-08-14T00:41:47;8.57;;;5.20;;
5553;SDS011;2800;49.528;8.666;2022-08-14T00:44:13;7.60;;;5.00;;
5553;SDS011;2800;49.528;8.666;2022-08-14T00:46:40;6.83;;;4.90;;
5553;SDS011;2800;49.528;8.666;2022-08-14T00:49:06;7.63;;;5.20;;
5553;SDS011;2800;49.528;8.666;2022-08-14T00:51:33;6.93;;;5.17;;
5553;SDS011;2800;49.528;8.666;2022-08-14T00:53:59;6.97;;;5.17;;
5553;SDS011;2800;49.528;8.666;2022-08-14T00:56:27;7.30;;;5.43;;
5553;SDS011;2800;49.528;8.666;2022-08-14T00:58:53;6.93;;;5.13;;
5553;SDS011;2800;49.528;8.666;2022-08-14T01:01:22;8.33;;;5.30;;
5553;SDS011;2800;49.528;8.666;2022-08-14T01:03:48;7.10;;;5.43;;
5553;SDS011;2800;49.528;8.666;2022-08-14T01:06:14;7.07;;;5.30;;
5553;SDS011;2800;49.528;8.666;2022-08-14T01:08:41;8.57;;;5.20;;
5553;SDS011;2800;49.528;8.666;2022-08-14T01:11:08;6.87;;;5.00;;
5553;SDS011;2800;49.528;8.666;2022-08-14T01:13:39;10.90;;;5.40;;
5553;SDS011;2800;49.528;8.666;2022-08-14T01:16:08;8.83;;;5.77;;
5553;SDS011;2800;49.528;8.666;2022-08-14T01:18:35;7.50;;;5.90;;
5553;SDS011;2800;49.528;8.666;2022-08-14T01:21:33;6.67;;;5.40;;
5553;SDS011;2800;49.528;8.666;2022-08-14T01:24:01;9.20;;;6.00;;
5553;SDS011;2800;49.528;8.666;2022-08-14T01:26:28;8.20;;;5.70;;
5553;SDS011;2800;49.528;8.666;2022-08-14T01:28:54;11.90;;;5.97;;
5553;SDS011;2800;49.528;8.666;2022-08-14T01:31:28;8.70;;;5.70;;
5553;SDS011;2800;49.528;8.666;2022-08-14T01:33:56;9.23;;;6.27;;
5553;SDS011;2800;49.528;8.666;2022-08-14T01:36:24;8.80;;;6.07;;
5553;SDS011;2800;49.528;8.666;2022-08-14T01:38:53;8.40;;;6.13;;
5553;SDS011;2800;49.528;8.666;2022-08-14T01:41:22;8.23;;;6.00;;
5553;SDS011;2800;49.528;8.666;2022-08-14T01:43:50;10.60;;;5.97;;
5553;SDS011;2800;49.528;8.666;2022-08-14T01:46:19;7.80;;;6.00;;
5553;SDS011;2800;49.528;8.666;2022-08-14T01:48:46;8.07;;;5.70;;
5553;SDS011;2800;49.528;8.666;2022-08-14T01:51:14;9.43;;;6.20;;
5553;SDS011;2800;49.528;8.666;2022-08-14T01:53:42;8.53;;;6.30;;
5553;SDS011;2800;49.528;8.666;2022-08-14T01:56:11;8.90;;;6.20;;
5553;SDS011;2800;49.528;8.666;2022-08-14T01:58:42;8.13;;;6.10;;
5553;SDS011;2800;49.528;8.666;2022-08-14T02:01:11;8.10;;;6.10;;
5553;SDS011;2800;49.528;8.666;2022-08-14T02:03:39;11.53;;;7.20;;
5553;SDS011;2800;49.528;8.666;2022-08-14T02:06:05;11.50;;;5.73;;
5553;SDS011;2800;49.528;8.666;2022-08-14T02:08:31;9.00;;;6.80;;
5553;SDS011;2800;49.528;8.666;2022-08-14T02:10:57;9.20;;;5.80;;
5553;SDS011;2800;49.528;8.666;2022-08-14T02:13:43;8.83;;;6.13;;
5553;SDS011;2800;49.528;8.666;2022-08-14T02:16:10;7.70;;;6.10;;
5553;SDS011;2800;49.528;8.666;2022-08-14T02:18:37;11.23;;;6.47;;
5553;SDS011;2800;49.528;8.666;2022-08-14T02:21:03;9.83;;;7.27;;
5553;SDS011;2800;49.528;8.666;2022-08-14T02:23:30;6.90;;;6.10;;
5553;SDS011;2800;49.528;8.666;2022-08-14T02:25:57;8.77;;;6.20;;
5553;SDS011;2800;49.528;8.666;2022-08-14T02:28:25;8.33;;;6.20;;
5553;SDS011;2800;49.528;8.666;2022-08-14T02:30:54;9.70;;;6.03;;
5553;SDS011;2800;49.528;8.666;2022-08-14T02:33:20;8.57;;;6.40;;
5553;SDS011;2800;49.528;8.666;2022-08-14T02:35:46;8.50;;;6.47;;
5553;SDS011;2800;49.528;8.666;2022-08-14T02:38:13;8.33;;;6.37;;
5553;SDS011;2800;49.528;8.666;2022-08-14T02:40:38;8.37;;;6.50;;
5553;SDS011;2800;49.528;8.666;2022-08-14T02:43:04;7.80;;;6.70;;
5553;SDS011;2800;49.528;8.666;2022-08-14T02:45:30;10.53;;;7.10;;
5553;SDS011;2800;49.528;8.666;2022-08-14T02:47:57;7.87;;;6.00;;
5553;SDS011;2800;49.528;8.666;2022-08-14T02:50:24;9.03;;;6.50;;
5553;SDS011;2800;49.528;8.666;2022-08-14T02:52:50;12.30;;;6.30;;
5553;SDS011;2800;49.528;8.666;2022-08-14T02:55:18;9.33;;;6.63;;
5553;SDS011;2800;49.528;8.666;2022-08-14T02:57:44;9.40;;;6.87;;
5553;SDS011;2800;49.528;8.666;2022-08-14T03:00:13;9.33;;;6.60;;
5553;SDS011;2800;49.528;8.666;2022-08-14T03:02:38;11.47;;;6.80;;
5553;SDS011;2800;49.528;8.666;2022-08-14T03:05:05;7.03;;;5.93;;
5553;SDS011;2800;49.528;8.666;2022-08-14T03:07:31;8.97;;;6.87;;
5553;SDS011;2800;49.528;8.666;2022-08-14T03:09:56;9.43;;;6.73;;
5553;SDS011;2800;49.528;8.666;2022-08-14T03:12:23;8.80;;;6.60;;
5553;SDS011;2800;49.528;8.666;2022-08-14T03:14:50;7.97;;;6.40;;
5553;SDS011;2800;49.528;8.666;2022-08-14T03:17:16;7.93;;;6.67;;
5553;SDS011;2800;49.528;8.666;2022-08-14T03:19:42;8.30;;;6.30;;
5553;SDS011;2800;49.528;8.666;2022-08-14T03:22:08;9.50;;;6.37;;
5553;SDS011;2800;49.528;8.666;2022-08-14T03:24:34;9.77;;;6.60;;
5553;SDS011;2800;49.528;8.666;2022-08-14T03:27:00;10.07;;;6.80;;
5553;SDS011;2800;49.528;8.666;2022-08-14T03:29:27;8.50;;;6.70;;
5553;SDS011;2800;49.528;8.666;2022-08-14T03:31:53;8.43;;;6.40;;
5553;SDS011;2800;49.528;8.666;2022-08-14T03:34:19;7.90;;;6.30;;
5553;SDS011;2800;49.528;8.666;2022-08-14T03:36:48;8.80;;;6.10;;
5553;SDS011;2800;49.528;8.666;2022-08-14T03:39:20;7.93;;;6.10;;
5553;SDS011;2800;49.528;8.666;2022-08-14T03:41:47;9.20;;;6.63;;
5553;SDS011;2800;49.528;8.666;2022-08-14T03:44:15;9.23;;;6.60;;
5553;SDS011;2800;49.528;8.666;2022-08-14T03:46:41;9.20;;;6.00;;
5553;SDS011;2800;49.528;8.666;2022-08-14T03:49:07;10.53;;;6.77;;
5553;SDS011;2800;49.528;8.666;2022-08-14T03:51:34;8.90;;;6.40;;
5553;SDS011;2800;49.528;8.666;2022-08-14T03:54:00;10.00;;;7.00;;
5553;SDS011;2800;49.528;8.666;2022-08-14T03:56:28;8.50;;;6.80;;
5553;SDS011;2800;49.528;8.666;2022-08-14T03:58:54;10.57;;;6.73;;
5553;SDS011;2800;49.528;8.666;2022-08-14T04:01:22;8.20;;;6.47;;
5553;SDS011;2800;49.528;8.666;2022-08-14T04:03:49;8.87;;;6.90;;
5553;SDS011;2800;49.528;8.666;2022-08-14T04:06:17;9.53;;;7.57;;
5553;SDS011;2800;49.528;8.666;2022-08-14T04:08:46;12.17;;;7.13;;
5553;SDS011;2800;49.528;8.666;2022-08-14T04:11:13;10.43;;;7.70;;
5553;SDS011;2800;49.528;8.666;2022-08-14T04:13:40;10.53;;;7.20;;
5553;SDS011;2800;49.528;8.666;2022-08-14T04:16:08;9.67;;;6.80;;
5553;SDS011;2800;49.528;8.666;2022-08-14T04:18:41;12.30;;;7.50;;
5553;SDS011;2800;49.528;8.666;2022-08-14T04:21:10;9.43;;;7.23;;
5553;SDS011;2800;49.528;8.666;2022-08-14T04:23:37;9.13;;;7.27;;
5553;SDS011;2800;49.528;8.666;2022-08-14T04:26:04;12.73;;;6.53;;
5553;SDS011;2800;49.528;8.666;2022-08-14T04:28:32;8.10;;;6.93;;
5553;SDS011;2800;49.528;8.666;2022-08-14T04:31:00;11.57;;;7.40;;
5553;SDS011;2800;49.528;8.666;2022-08-14T04:33:26;8.90;;;7.03;;
5553;SDS011;2800;49.528;8.666;2022-08-14T04:35:52;9.80;;;7.40;;
5553;SDS011;2800;49.528;8.666;2022-08-14T04:38:19;12.50;;;7.47;;
5553;SDS011;2800;49.528;8.666;2022-08-14T04:41:05;11.40;;;7.93;;
5553;SDS011;2800;49.528;8.666;2022-08-14T04:43:49;10.77;;;7.20;;
5553;SDS011;2800;49.528;8.666;2022-08-14T04:46:16;10.60;;;7.53;;
5553;SDS011;2800;49.528;8.666;2022-08-14T04:48:43;8.73;;;7.10;;
5553;SDS011;2800;49.528;8.666;2022-08-14T04:51:13;10.43;;;8.33;;
5553;SDS011;2800;49.528;8.666;2022-08-14T04:53:41;10.13;;;7.50;;
5553;SDS011;2800;49.528;8.666;2022-08-14T04:56:14;9.60;;;7.53;;
5553;SDS011;2800;49.528;8.666;2022-08-14T04:58:41;9.00;;;7.10;;
5553;SDS011;2800;49.528;8.666;2022-08-14T05:01:07;8.80;;;7.63;;
5553;SDS011;2800;49.528;8.666;2022-08-14T05:03:35;8.90;;;7.50;;
5553;SDS011;2800;49.528;8.666;2022-08-14T05:06:02;11.93;;;8.07;;
5553;SDS011;2800;49.528;8.666;2022-08-14T05:08:30;9.50;;;7.20;;
5553;SDS011;2800;49.528;8.666;2022-08-14T05:10:58;8.43;;;7.30;;
5553;SDS011;2800;49.528;8.666;2022-08-14T05:13:25;11.30;;;6.83;;
5553;SDS011;2800;49.528;8.666;2022-08-14T05:15:53;10.83;;;7.50;;
5553;SDS011;2800;49.528;8.666;2022-08-14T05:18:20;9.30;;;7.67;;
5553;SDS011;2800;49.528;8.666;2022-08-14T05:20:49;10.43;;;7.40;;
5553;SDS011;2800;49.528;8.666;2022-08-14T05:23:20;11.83;;;8.70;;
5553;SDS011;2800;49.528;8.666;2022-08-14T05:25:47;11.60;;;7.90;;
5553;SDS011;2800;49.528;8.666;2022-08-14T05:30:46;8.63;;;7.23;;
5553;SDS011;2800;49.528;8.666;2022-08-14T05:33:18;8.73;;;7.53;;
5553;SDS011;2800;49.528;8.666;2022-08-14T05:35:45;9.70;;;7.10;;
5553;SDS011;2800;49.528;8.666;2022-08-14T05:38:12;11.87;;;7.60;;
5553;SDS011;2800;49.528;8.666;2022-08-14T05:40:40;10.20;;;7.53;;
5553;SDS011;2800;49.528;8.666;2022-08-14T05:43:07;10.53;;;8.13;;
5553;SDS011;2800;49.528;8.666;2022-08-14T05:45:34;12.23;;;7.20;;
5553;SDS011;2800;49.528;8.666;2022-08-14T05:48:03;10.43;;;7.10;;
5553;SDS011;2800;49.528;8.666;2022-08-14T05:50:30;10.30;;;7.57;;
5553;SDS011;2800;49.528;8.666;2022-08-14T05:52:56;8.77;;;7.17;;
5553;SDS011;2800;49.528;8.666;2022-08-14T05:55:22;9.37;;;8.00;;
5553;SDS011;2800;49.528;8.666;2022-08-14T05:57:52;10.13;;;8.20;;
5553;SDS011;2800;49.528;8.666;2022-08-14T06:00:24;10.57;;;7.83;;
5553;SDS011;2800;49.528;8.666;2022-08-14T06:02:54;11.00;;;7.53;;
5553;SDS011;2800;49.528;8.666;2022-08-14T06:05:22;11.37;;;7.10;;
5553;SDS011;2800;49.528;8.666;2022-08-14T06:07:48;12.90;;;7.47;;
5553;SDS011;2800;49.528;8.666;2022-08-14T06:10:14;15.67;;;7.40;;
5553;SDS011;2800;49.528;8.666;2022-08-14T06:12:39;9.10;;;7.53;;
5553;SDS011;2800;49.528;8.666;2022-08-14T06:15:06;13.47;;;7.53;;
5553;SDS011;2800;49.528;8.666;2022-08-14T06:17:41;9.27;;;6.90;;
5553;SDS011;2800;49.528;8.666;2022-08-14T06:20:17;11.20;;;6.80;;
5553;SDS011;2800;49.528;8.666;2022-08-14T06:22:43;8.73;;;7.23;;
5553;SDS011;2800;49.528;8.666;2022-08-14T06:25:10;9.10;;;7.07;;
5553;SDS011;2800;49.528;8.666;2022-08-14T06:27:45;10.67;;;7.30;;
5553;SDS011;2800;49.528;8.666;2022-08-14T06:30:16;8.00;;;6.70;;
5553;SDS011;2800;49.528;8.666;2022-08-14T06:32:43;11.73;;;7.47;;
5553;SDS011;2800;49.528;8.666;2022-08-14T06:35:10;14.07;;;7.67;;
5553;SDS011;2800;49.528;8.666;2022-08-14T06:40:19;11.53;;;7.87;;
5553;SDS011;2800;49.528;8.666;2022-08-14T06:42:47;11.43;;;7.47;;
5553;SDS011;2800;49.528;8.666;2022-08-14T06:45:13;10.70;;;7.20;;
5553;SDS011;2800;49.528;8.666;2022-08-14T06:47:40;9.93;;;7.17;;
5553;SDS011;2800;49.528;8.666;2022-08-14T06:50:08;9.67;;;7.10;;
5553;SDS011;2800;49.528;8.666;2022-08-14T06:52:35;10.50;;;7.43;;
5553;SDS011;2800;49.528;8.666;2022-08-14T06:55:01;8.40;;;6.83;;
5553;SDS011;2800;49.528;8.666;2022-08-14T06:57:35;10.10;;;7.03;;
5553;SDS011;2800;49.528;8.666;2022-08-14T07:00:13;9.60;;;7.10;;
5553;SDS011;2800;49.528;8.666;2022-08-14T07:02:42;10.33;;;7.10;;
5553;SDS011;2800;49.528;8.666;2022-08-14T07:05:26;8.83;;;6.83;;
5553;SDS011;2800;49.528;8.666;2022-08-14T07:11:07;8.37;;;6.80;;
5553;SDS011;2800;49.528;8.666;2022-08-14T07:13:33;10.30;;;7.67;;
5553;SDS011;2800;49.528;8.666;2022-08-14T07:15:58;11.20;;;7.47;;
5553;SDS011;2800;49.528;8.666;2022-08-14T07:18:25;14.80;;;6.93;;
5553;SDS011;2800;49.528;8.666;2022-08-14T07:20:53;13.10;;;7.23;;
5553;SDS011;2800;49.528;8.666;2022-08-14T07:23:19;13.43;;;7.03;;
5553;SDS011;2800;49.528;8.666;2022-08-14T07:25:47;9.43;;;6.63;;
5553;SDS011;2800;49.528;8.666;2022-08-14T07:28:20;11.13;;;7.23;;
5553;SDS011;2800;49.528;8.666;2022-08-14T07:30:57;11.03;;;7.30;;
5553;SDS011;2800;49.528;8.666;2022-08-14T07:33:25;11.03;;;7.07;;
5553;SDS011;2800;49.528;8.666;2022-08-14T07:35:52;8.83;;;7.47;;
5553;SDS011;2800;49.528;8.666;2022-08-14T07:38:19;7.90;;;6.80;;
5553;SDS011;2800;49.528;8.666;2022-08-14T07:40:47;16.80;;;7.50;;
5553;SDS011;2800;49.528;8.666;2022-08-14T07:43:14;10.23;;;7.10;;
5553;SDS011;2800;49.528;8.666;2022-08-14T07:45:40;12.07;;;7.10;;
5553;SDS011;2800;49.528;8.666;2022-08-14T07:48:06;11.33;;;6.77;;
5553;SDS011;2800;49.528;8.666;2022-08-14T07:50:32;16.73;;;7.00;;
5553;SDS011;2800;49.528;8.666;2022-08-14T07:52:58;9.60;;;7.67;;
5553;SDS011;2800;49.528;8.666;2022-08-14T07:55:25;13.33;;;6.93;;
5553;SDS011;2800;49.528;8.666;2022-08-14T07:57:52;9.20;;;7.40;;
5553;SDS011;2800;49.528;8.666;2022-08-14T08:00:19;9.80;;;6.70;;
5553;SDS011;2800;49.528;8.666;2022-08-14T08:02:48;10.50;;;7.47;;
5553;SDS011;2800;49.528;8.666;2022-08-14T08:05:17;14.03;;;6.93;;
5553;SDS011;2800;49.528;8.666;2022-08-14T08:07:44;9.17;;;7.10;;
5553;SDS011;2800;49.528;8.666;2022-08-14T08:10:18;10.27;;;7.50;;
5553;SDS011;2800;49.528;8.666;2022-08-14T08:15:34;11.77;;;6.80;;
5553;SDS011;2800;49.528;8.666;2022-08-14T08:18:02;13.10;;;6.77;;
5553;SDS011;2800;49.528;8.666;2022-08-14T08:20:29;13.20;;;7.07;;
5553;SDS011;2800;49.528;8.666;2022-08-14T08:23:00;10.00;;;7.00;;
5553;SDS011;2800;49.528;8.666;2022-08-14T08:25:29;11.50;;;7.10;;
5553;SDS011;2800;49.528;8.666;2022-08-14T08:27:57;9.80;;;7.00;;
5553;SDS011;2800;49.528;8.666;2022-08-14T08:30:32;11.83;;;7.20;;
5553;SDS011;2800;49.528;8.666;2022-08-14T08:32:59;10.27;;;7.23;;
5553;SDS011;2800;49.528;8.666;2022-08-14T08:35:27;8.33;;;6.93;;
5553;SDS011;2800;49.528;8.666;2022-08-14T08:37:59;11.80;;;7.00;;
5553;SDS011;2800;49.528;8.666;2022-08-14T08:43:04;9.53;;;7.17;;
5553;SDS011;2800;49.528;8.666;2022-08-14T08:45:32;11.10;;;6.53;;
5553;SDS011;2800;49.528;8.666;2022-08-14T08:47:59;8.10;;;6.30;;
5553;SDS011;2800;49.528;8.666;2022-08-14T08:50:27;10.53;;;7.47;;
5553;SDS011;2800;49.528;8.666;2022-08-14T08:52:59;9.23;;;6.60;;
5553;SDS011;2800;49.528;8.666;2022-08-14T08:55:33;8.13;;;6.40;;
5553;SDS011;2800;49.528;8.666;2022-08-14T08:58:06;9.70;;;6.80;;
5553;SDS011;2800;49.528;8.666;2022-08-14T09:00:34;12.23;;;6.77;;
5553;SDS011;2800;49.528;8.666;2022-08-14T09:03:05;9.43;;;6.50;;
5553;SDS011;2800;49.528;8.666;2022-08-14T09:05:33;10.87;;;6.77;;
5553;SDS011;2800;49.528;8.666;2022-08-14T09:08:08;13.43;;;6.60;;
5553;SDS011;2800;49.528;8.666;2022-08-14T09:10:36;12.17;;;6.50;;
5553;SDS011;2800;49.528;8.666;2022-08-14T09:13:01;7.70;;;6.17;;
5553;SDS011;2800;49.528;8.666;2022-08-14T09:15:28;7.70;;;6.03;;
5553;SDS011;2800;49.528;8.666;2022-08-14T09:17:54;9.00;;;6.07;;
5553;SDS011;2800;49.528;8.666;2022-08-14T09:20:21;6.80;;;5.70;;
5553;SDS011;2800;49.528;8.666;2022-08-14T09:22:47;10.00;;;5.70;;
5553;SDS011;2800;49.528;8.666;2022-08-14T09:25:15;11.70;;;5.77;;
5553;SDS011;2800;49.528;8.666;2022-08-14T09:27:41;10.80;;;6.60;;
5553;SDS011;2800;49.528;8.666;2022-08-14T09:30:08;12.53;;;6.37;;
5553;SDS011;2800;49.528;8.666;2022-08-14T09:32:38;12.43;;;6.53;;
5553;SDS011;2800;49.528;8.666;2022-08-14T09:35:21;8.90;;;6.33;;
5553;SDS011;2800;49.528;8.666;2022-08-14T09:40:35;12.40;;;5.87;;
5553;SDS011;2800;49.528;8.666;2022-08-14T09:46:17;8.23;;;5.70;;
5553;SDS011;2800;49.528;8.666;2022-08-14T09:48:43;13.23;;;5.70;;
5553;SDS011;2800;49.528;8.666;2022-08-14T09:51:17;12.83;;;5.80;;
5553;SDS011;2800;49.528;8.666;2022-08-14T09:53:47;7.17;;;5.60;;
5553;SDS011;2800;49.528;8.666;2022-08-14T09:56:41;6.97;;;5.40;;
5553;SDS011;2800;49.528;8.666;2022-08-14T09:59:13;9.00;;;5.53;;
5553;SDS011;2800;49.528;8.666;2022-08-14T10:01:40;7.23;;;5.10;;
5553;SDS011;2800;49.528;8.666;2022-08-14T10:07:03;11.47;;;5.10;;
5553;SDS011;2800;49.528;8.666;2022-08-14T10:09:30;8.03;;;5.40;;
5553;SDS011;2800;49.528;8.666;2022-08-14T10:11:56;9.07;;;4.80;;
5553;SDS011;2800;49.528;8.666;2022-08-14T10:14:23;6.30;;;4.80;;
5553;SDS011;2800;49.528;8.666;2022-08-14T10:16:55;7.00;;;5.57;;
5553;SDS011;2800;49.528;8.666;2022-08-14T10:19:25;11.13;;;5.00;;
5553;SDS011;2800;49.528;8.666;2022-08-14T10:22:05;13.33;;;5.30;;
5553;SDS011;2800;49.528;8.666;2022-08-14T10:24:41;7.37;;;5.03;;
5553;SDS011;2800;49.528;8.666;2022-08-14T10:27:15;6.93;;;4.90;;
5553;SDS011;2800;49.528;8.666;2022-08-14T10:29:43;6.70;;;5.20;;
5553;SDS011;2800;49.528;8.666;2022-08-14T10:32:16;10.33;;;5.30;;
5553;SDS011;2800;49.528;8.666;2022-08-14T10:34:42;8.57;;;4.77;;
5553;SDS011;2800;49.528;8.666;2022-08-14T10:37:08;9.10;;;4.80;;
5553;SDS011;2800;49.528;8.666;2022-08-14T10:39:36;7.93;;;4.80;;
5553;SDS011;2800;49.528;8.666;2022-08-14T10:42:10;6.57;;;4.70;;
5553;SDS011;2800;49.528;8.666;2022-08-14T10:44:38;7.37;;;4.80;;
5553;SDS011;2800;49.528;8.666;2022-08-14T10:47:06;8.77;;;4.40;;
5553;SDS011;2800;49.528;8.666;2022-08-14T10:49:34;6.97;;;4.60;;
5553;SDS011;2800;49.528;8.666;2022-08-14T10:52:05;6.37;;;4.20;;
5553;SDS011;2800;49.528;8.666;2022-08-14T10:54:36;6.70;;;4.50;;
5553;SDS011;2800;49.528;8.666;2022-08-14T10:57:12;6.70;;;4.23;;
5553;SDS011;2800;49.528;8.666;2022-08-14T10:59:42;9.80;;;4.70;;
5553;SDS011;2800;49.528;8.666;2022-08-14T11:02:17;8.60;;;5.50;;
5553;SDS011;2800;49.528;8.666;2022-08-14T11:04:44;8.53;;;4.00;;
5553;SDS011;2800;49.528;8.666;2022-08-14T11:07:31;6.73;;;3.60;;
5553;SDS011;2800;49.528;8.666;2022-08-14T11:10:00;7.40;;;3.83;;
5553;SDS011;2800;49.528;8.666;2022-08-14T11:15:05;5.77;;;3.50;;
5553;SDS011;2800;49.528;8.666;2022-08-14T11:17:31;7.40;;;4.00;;
5553;SDS011;2800;49.528;8.666;2022-08-14T11:20:01;6.67;;;3.40;;
5553;SDS011;2800;49.528;8.666;2022-08-14T11:22:29;6.10;;;4.27;;
5553;SDS011;2800;49.528;8.666;2022-08-14T11:24:58;6.17;;;3.90;;
5553;SDS011;2800;49.528;8.666;2022-08-14T11:27:30;8.70;;;3.90;;
5553;SDS011;2800;49.528;8.666;2022-08-14T11:30:03;6.23;;;4.10;;
5553;SDS011;2800;49.528;8.666;2022-08-14T11:32:31;5.60;;;3.73;;
5553;SDS011;2800;49.528;8.666;2022-08-14T11:34:57;6.57;;;4.20;;
5553;SDS011;2800;49.528;8.666;2022-08-14T11:37:24;6.20;;;4.13;;
5553;SDS011;2800;49.528;8.666;2022-08-14T11:39:50;7.50;;;4.33;;
5553;SDS011;2800;49.528;8.666;2022-08-14T11:42:22;7.00;;;4.07;;
5553;SDS011;2800;49.528;8.666;2022-08-14T11:44:50;5.87;;;4.20;;
5553;SDS011;2800;49.528;8.666;2022-08-14T11:47:17;5.87;;;4.10;;
5553;SDS011;2800;49.528;8.666;2022-08-14T11:49:46;5.53;;;4.00;;
5553;SDS011;2800;49.528;8.666;2022-08-14T11:52:15;5.43;;;3.93;;
5553;SDS011;2800;49.528;8.666;2022-08-14T11:54:44;5.90;;;3.97;;
5553;SDS011;2800;49.528;8.666;2022-08-14T11:57:22;7.70;;;3.80;;
5553;SDS011;2800;49.528;8.666;2022-08-14T11:59:47;7.57;;;4.37;;
5553;SDS011;2800;49.528;8.666;2022-08-14T12:02:23;7.37;;;3.90;;
5553;SDS011;2800;49.528;8.666;2022-08-14T12:04:50;5.57;;;3.87;;
5553;SDS011;2800;49.528;8.666;2022-08-14T12:07:17;6.90;;;4.10;;
5553;SDS011;2800;49.528;8.666;2022-08-14T12:09:44;6.10;;;4.37;;
5553;SDS011;2800;49.528;8.666;2022-08-14T12:12:14;6.07;;;4.20;;
5553;SDS011;2800;49.528;8.666;2022-08-14T12:14:48;5.63;;;4.17;;
5553;SDS011;2800;49.528;8.666;2022-08-14T12:17:17;7.57;;;4.10;;
5553;SDS011;2800;49.528;8.666;2022-08-14T12:19:47;6.90;;;3.97;;
5553;SDS011;2800;49.528;8.666;2022-08-14T12:22:19;7.17;;;4.47;;
5553;SDS011;2800;49.528;8.666;2022-08-14T12:25:02;9.60;;;4.40;;
5553;SDS011;2800;49.528;8.666;2022-08-14T12:27:46;6.40;;;4.20;;
5553;SDS011;2800;49.528;8.666;2022-08-14T12:30:33;7.27;;;4.47;;
5553;SDS011;2800;49.528;8.666;2022-08-14T12:33:03;5.90;;;4.00;;
5553;SDS011;2800;49.528;8.666;2022-08-14T12:35:40;9.30;;;3.90;;
5553;SDS011;2800;49.528;8.666;2022-08-14T12:38:07;8.20;;;4.40;;
5553;SDS011;2800;49.528;8.666;2022-08-14T12:40:48;6.87;;;4.37;;
5553;SDS011;2800;49.528;8.666;2022-08-14T12:43:16;5.97;;;4.20;;
5553;SDS011;2800;49.528;8.666;2022-08-14T12:45:51;6.60;;;4.57;;
5553;SDS011;2800;49.528;8.666;2022-08-14T12:48:19;5.83;;;4.00;;
5553;SDS011;2800;49.528;8.666;2022-08-14T12:50:46;8.53;;;4.40;;
5553;SDS011;2800;49.528;8.666;2022-08-14T12:53:16;7.33;;;4.30;;
5553;SDS011;2800;49.528;8.666;2022-08-14T12:55:42;5.87;;;4.07;;
5553;SDS011;2800;49.528;8.666;2022-08-14T12:58:09;7.27;;;4.23;;
5553;SDS011;2800;49.528;8.666;2022-08-14T13:00:36;11.33;;;4.50;;
5553;SDS011;2800;49.528;8.666;2022-08-14T13:03:10;11.20;;;4.43;;
5553;SDS011;2800;49.528;8.666;2022-08-14T13:05:51;8.35;;;4.43;;
5553;SDS011;2800;49.528;8.666;2022-08-14T13:08:17;8.45;;;4.53;;
5553;SDS011;2800;49.528;8.666;2022-08-14T13:10:42;7.03;;;4.78;;
5553;SDS011;2800;49.528;8.666;2022-08-14T13:13:11;8.70;;;4.50;;
5553;SDS011;2800;49.528;8.666;2022-08-14T13:15:39;6.27;;;4.53;;
5553;SDS011;2800;49.528;8.666;2022-08-14T13:18:06;8.30;;;4.47;;
5553;SDS011;2800;49.528;8.666;2022-08-14T13:20:34;7.10;;;4.50;;
5553;SDS011;2800;49.528;8.666;2022-08-14T13:22:59;6.77;;;4.60;;
5553;SDS011;2800;49.528;8.666;2022-08-14T13:25:26;6.03;;;4.05;;
5553;SDS011;2800;49.528;8.666;2022-08-14T13:27:54;7.70;;;4.67;;
5553;SDS011;2800;49.528;8.666;2022-08-14T13:30:23;6.17;;;4.20;;
5553;SDS011;2800;49.528;8.666;2022-08-14T13:32:50;7.30;;;4.40;;
5553;SDS011;2800;49.528;8.666;2022-08-14T13:35:17;6.07;;;4.37;;
5553;SDS011;2800;49.528;8.666;2022-08-14T13:37:44;6.47;;;3.80;;
5553;SDS011;2800;49.528;8.666;2022-08-14T13:40:14;6.80;;;4.60;;
5553;SDS011;2800;49.528;8.666;2022-08-14T13:42:45;6.67;;;4.37;;
5553;SDS011;2800;49.528;8.666;2022-08-14T13:45:12;7.50;;;4.70;;
5553;SDS011;2800;49.528;8.666;2022-08-14T13:47:41;12.83;;;4.37;;
5553;SDS011;2800;49.528;8.666;2022-08-14T13:50:08;7.93;;;4.20;;
5553;SDS011;2800;49.528;8.666;2022-08-14T13:52:40;7.07;;;4.23;;
5553;SDS011;2800;49.528;8.666;2022-08-14T13:55:07;7.60;;;4.30;;
5553;SDS011;2800;49.528;8.666;2022-08-14T13:57:38;4.93;;;3.60;;
5553;SDS011;2800;49.528;8.666;2022-08-14T14:00:09;6.25;;;4.00;;
5553;SDS011;2800;49.528;8.666;2022-08-14T14:02:37;6.63;;;3.97;;
5553;SDS011;2800;49.528;8.666;2022-08-14T14:05:07;6.20;;;3.97;;
5553;SDS011;2800;49.528;8.666;2022-08-14T14:07:36;6.50;;;3.97;;
5553;SDS011;2800;49.528;8.666;2022-08-14T14:10:05;7.95;;;4.03;;
5553;SDS011;2800;49.528;8.666;2022-08-14T14:12:35;7.40;;;4.53;;
5553;SDS011;2800;49.528;8.666;2022-08-14T14:15:02;8.40;;;4.22;;
5553;SDS011;2800;49.528;8.666;2022-08-14T14:17:30;7.13;;;4.50;;
5553;SDS011;2800;49.528;8.666;2022-08-14T14:19:57;7.15;;;4.13;;
5553;SDS011;2800;49.528;8.666;2022-08-14T14:22:22;5.77;;;4.20;;
5553;SDS011;2800;49.528;8.666;2022-08-14T14:24:51;8.90;;;4.28;;
5553;SDS011;2800;49.528;8.666;2022-08-14T14:27:17;7.28;;;4.07;;
5553;SDS011;2800;49.528;8.666;2022-08-14T14:29:44;8.68;;;4.00;;
5553;SDS011;2800;49.528;8.666;2022-08-14T14:32:12;10.85;;;4.35;;
5553;SDS011;2800;49.528;8.666;2022-08-14T14:34:40;6.63;;;4.03;;
5553;SDS011;2800;49.528;8.666;2022-08-14T14:37:06;8.82;;;3.97;;
5553;SDS011;2800;49.528;8.666;2022-08-14T14:39:36;7.38;;;3.90;;
5553;SDS011;2800;49.528;8.666;2022-08-14T14:42:02;7.97;;;4.03;;
5553;SDS011;2800;49.528;8.666;2022-08-14T14:44:34;5.25;;;3.80;;
5553;SDS011;2800;49.528;8.666;2022-08-14T14:47:06;5.75;;;3.88;;
5553;SDS011;2800;49.528;8.666;2022-08-14T14:49:34;7.30;;;4.38;;
5553;SDS011;2800;49.528;8.666;2022-08-14T14:52:01;5.65;;;3.88;;
5553;SDS011;2800;49.528;8.666;2022-08-14T14:54:29;5.85;;;4.00;;
5553;SDS011;2800;49.528;8.666;2022-08-14T14:56:57;6.87;;;4.03;;
5553;SDS011;2800;49.528;8.666;2022-08-14T14:59:26;6.20;;;3.60;;
5553;SDS011;2800;49.528;8.666;2022-08-14T15:01:52;6.93;;;3.83;;
5553;SDS011;2800;49.528;8.666;2022-08-14T15:04:23;5.63;;;3.60;;
5553;SDS011;2800;49.528;8.666;2022-08-14T15:06:49;6.00;;;4.10;;
5553;SDS011;2800;49.528;8.666;2022-08-14T15:09:15;6.60;;;3.87;;
5553;SDS011;2800;49.528;8.666;2022-08-14T15:11:42;7.57;;;3.90;;
5553;SDS011;2800;49.528;8.666;2022-08-14T15:14:07;5.90;;;4.10;;
5553;SDS011;2800;49.528;8.666;2022-08-14T15:16:33;7.67;;;4.13;;
5553;SDS011;2800;49.528;8.666;2022-08-14T15:18:58;6.00;;;3.70;;
5553;SDS011;2800;49.528;8.666;2022-08-14T15:21:24;7.20;;;4.23;;
5553;SDS011;2800;49.528;8.666;2022-08-14T15:23:50;5.90;;;4.30;;
5553;SDS011;2800;49.528;8.666;2022-08-14T15:26:17;6.10;;;4.13;;
5553;SDS011;2800;49.528;8.666;2022-08-14T15:28:43;7.43;;;4.47;;
5553;SDS011;2800;49.528;8.666;2022-08-14T15:31:09;7.10;;;4.03;;
5553;SDS011;2800;49.528;8.666;2022-08-14T15:33:34;10.90;;;4.47;;
5553;SDS011;2800;49.528;8.666;2022-08-14T15:36:18;7.37;;;4.90;;
5553;SDS011;2800;49.528;8.666;2022-08-14T15:38:45;5.87;;;3.90;;
5553;SDS011;2800;49.528;8.666;2022-08-14T15:41:11;6.03;;;4.27;;
5553;SDS011;2800;49.528;8.666;2022-08-14T15:43:37;6.40;;;3.77;;
5553;SDS011;2800;49.528;8.666;2022-08-14T15:46:05;6.37;;;4.13;;